sensor_id;sensor_type;location;lat;lon;timestamp;P1;durP1;ratioP1;P2;durP2;ratioP2
62037;SDS011;47991;42.974;12.082;2023-03-14T00:01:19;9.90;;;2.60;;
62037;SDS011;47991;42.974;12.082;2023-03-14T00:03:46;13.00;;;3.50;;
62037;SDS011;47991;42.974;12.082;2023-03-14T00:06:13;11.30;;;2.80;;
62037;SDS011;47991;42.974;12.082;2023-03-14T00:22:02;9.70;;;2.70;;
62037;SDS011;47991;42.974;12.082;2023-03-14T00:24:28;10.30;;;3.00;;
62037;SDS011;47991;42.974;12.082;2023-03-14T00:26:54;10.10;;;3.30;;
62037;SDS011;47991;42.974;12.082;2023-03-14T00:29:22;12.60;;;3.20;;
62037;SDS011;47991;42.974;12.082;2023-03-14T00:31:48;10.90;;;3.60;;
62037;SDS011;47991;42.974;12.082;2023-03-14T00:34:15;10.60;;;3.00;;
62037;SDS011;47991;42.974;12.082;2023-03-14T00:36:42;12.10;;;3.50;;
62037;SDS011;47991;42.974;12.082;2023-03-14T00:39:08;8.10;;;2.70;;
62037;SDS011;47991;42.974;12.082;2023-03-14T00:41:35;10.30;;;3.30;;
62037;SDS011;47991;42.974;12.082;2023-03-14T00:44:02;12.80;;;3.20;;
62037;SDS011;47991;42.974;12.082;2023-03-14T00:46:28;9.90;;;2.80;;
62037;SDS011;47991;42.974;12.082;2023-03-14T00:49:00;8.10;;;2.60;;
62037;SDS011;47991;42.974;12.082;2023-03-14T00:51:27;10.70;;;3.30;;
62037;SDS011;47991;42.974;12.082;2023-03-14T00:53:56;11.30;;;3.20;;
62037;SDS011;47991;42.974;12.082;2023-03-14T00:56:22;7.40;;;2.70;;
62037;SDS011;47991;42.974;12.082;2023-03-14T00:58:49;10.80;;;2.80;;
62037;SDS011;47991;42.974;12.082;2023-03-14T01:01:16;12.70;;;3.60;;
62037;SDS011;47991;42.974;12.082;2023-03-14T01:03:45;11.20;;;2.70;;
62037;SDS011;47991;42.974;12.082;2023-03-14T01:06:16;10.10;;;2.70;;
62037;SDS011;47991;42.974;12.082;2023-03-14T01:08:45;9.10;;;2.30;;
62037;SDS011;47991;42.974;12.082;2023-03-14T01:11:12;10.40;;;2.60;;
62037;SDS011;47991;42.974;12.082;2023-03-14T01:13:41;12.30;;;2.90;;
62037;SDS011;47991;42.974;12.082;2023-03-14T01:16:07;12.90;;;2.90;;
62037;SDS011;47991;42.974;12.082;2023-03-14T01:18:36;8.60;;;2.40;;
62037;SDS011;47991;42.974;12.082;2023-03-14T01:21:09;7.70;;;2.10;;
62037;SDS011;47991;42.974;12.082;2023-03-14T01:23:37;7.90;;;2.00;;
62037;SDS011;47991;42.974;12.082;2023-03-14T01:26:03;8.50;;;2.20;;
62037;SDS011;47991;42.974;12.082;2023-03-14T01:28:30;11.30;;;3.00;;
62037;SDS011;47991;42.974;12.082;2023-03-14T01:31:01;9.90;;;2.60;;
62037;SDS011;47991;42.974;12.082;2023-03-14T01:33:28;8.70;;;2.20;;
62037;SDS011;47991;42.974;12.082;2023-03-14T01:35:55;10.10;;;2.70;;
62037;SDS011;47991;42.974;12.082;2023-03-14T01:38:21;7.20;;;2.00;;
62037;SDS011;47991;42.974;12.082;2023-03-14T01:40:47;8.30;;;2.10;;
62037;SDS011;47991;42.974;12.082;2023-03-14T01:43:17;9.20;;;2.60;;
62037;SDS011;47991;42.974;12.082;2023-03-14T01:48:39;8.10;;;2.00;;
62037;SDS011;47991;42.974;12.082;2023-03-14T01:51:13;10.50;;;2.30;;
62037;SDS011;47991;42.974;12.082;2023-03-14T01:53:44;9.40;;;2.30;;
62037;SDS011;47991;42.974;12.082;2023-03-14T01:56:12;9.00;;;2.30;;
62037;SDS011;47991;42.974;12.082;2023-03-14T01:58:41;9.60;;;2.20;;
62037;SDS011;47991;42.974;12.082;2023-03-14T02:01:16;10.90;;;3.00;;
62037;SDS011;47991;42.974;12.082;2023-03-14T02:03:47;8.10;;;2.00;;
62037;SDS011;47991;42.974;12.082;2023-03-14T02:06:19;8.20;;;2.20;;
62037;SDS011;47991;42.974;12.082;2023-03-14T02:08:51;9.40;;;2.10;;
62037;SDS011;47991;42.974;12.082;2023-03-14T02:14:13;8.70;;;2.20;;
62037;SDS011;47991;42.974;12.082;2023-03-14T02:17:08;11.10;;;2.90;;
62037;SDS011;47991;42.974;12.082;2023-03-14T02:23:00;8.10;;;2.80;;
62037;SDS011;47991;42.974;12.082;2023-03-14T02:28:17;10.30;;;3.00;;
62037;SDS011;47991;42.974;12.082;2023-03-14T02:30:50;11.90;;;3.40;;
62037;SDS011;47991;42.974;12.082;2023-03-14T02:33:17;14.90;;;3.30;;
62037;SDS011;47991;42.974;12.082;2023-03-14T02:35:56;10.60;;;3.10;;
62037;SDS011;47991;42.974;12.082;2023-03-14T02:38:41;16.50;;;4.00;;
62037;SDS011;47991;42.974;12.082;2023-03-14T02:41:07;11.30;;;4.20;;
62037;SDS011;47991;42.974;12.082;2023-03-14T02:43:49;9.00;;;3.20;;
62037;SDS011;47991;42.974;12.082;2023-03-14T02:46:18;14.30;;;3.80;;
62037;SDS011;47991;42.974;12.082;2023-03-14T02:51:30;14.70;;;4.80;;
62037;SDS011;47991;42.974;12.082;2023-03-14T02:53:59;16.80;;;5.10;;
62037;SDS011;47991;42.974;12.082;2023-03-14T02:56:27;17.40;;;4.90;;
62037;SDS011;47991;42.974;12.082;2023-03-14T02:58:54;12.30;;;4.60;;
62037;SDS011;47991;42.974;12.082;2023-03-14T03:01:27;12.30;;;4.20;;
62037;SDS011;47991;42.974;12.082;2023-03-14T03:03:53;12.90;;;4.10;;
62037;SDS011;47991;42.974;12.082;2023-03-14T03:06:20;12.30;;;4.00;;
62037;SDS011;47991;42.974;12.082;2023-03-14T03:08:47;12.80;;;3.40;;
62037;SDS011;47991;42.974;12.082;2023-03-14T03:11:13;13.30;;;3.70;;
62037;SDS011;47991;42.974;12.082;2023-03-14T03:13:43;15.20;;;4.20;;
62037;SDS011;47991;42.974;12.082;2023-03-14T03:16:13;15.00;;;4.60;;
62037;SDS011;47991;42.974;12.082;2023-03-14T03:18:43;14.20;;;4.60;;
62037;SDS011;47991;42.974;12.082;2023-03-14T03:21:10;14.50;;;4.90;;
62037;SDS011;47991;42.974;12.082;2023-03-14T03:23:36;13.50;;;4.30;;
62037;SDS011;47991;42.974;12.082;2023-03-14T03:26:10;13.80;;;4.70;;
62037;SDS011;47991;42.974;12.082;2023-03-14T03:28:37;13.60;;;4.60;;
62037;SDS011;47991;42.974;12.082;2023-03-14T03:31:07;12.10;;;4.00;;
62037;SDS011;47991;42.974;12.082;2023-03-14T03:33:55;12.50;;;4.30;;
62037;SDS011;47991;42.974;12.082;2023-03-14T03:36:24;16.90;;;4.40;;
62037;SDS011;47991;42.974;12.082;2023-03-14T03:38:51;14.00;;;4.20;;
62037;SDS011;47991;42.974;12.082;2023-03-14T03:41:18;11.60;;;3.60;;
62037;SDS011;47991;42.974;12.082;2023-03-14T03:43:45;13.10;;;4.50;;
62037;SDS011;47991;42.974;12.082;2023-03-14T03:46:13;13.00;;;3.80;;
62037;SDS011;47991;42.974;12.082;2023-03-14T03:48:42;14.70;;;4.30;;
62037;SDS011;47991;42.974;12.082;2023-03-14T03:51:12;13.90;;;4.30;;
62037;SDS011;47991;42.974;12.082;2023-03-14T03:53:45;10.40;;;3.50;;
62037;SDS011;47991;42.974;12.082;2023-03-14T03:56:13;12.90;;;4.10;;
62037;SDS011;47991;42.974;12.082;2023-03-14T03:58:39;11.00;;;3.90;;
62037;SDS011;47991;42.974;12.082;2023-03-14T04:01:10;12.60;;;3.90;;
62037;SDS011;47991;42.974;12.082;2023-03-14T04:03:51;13.90;;;4.10;;
62037;SDS011;47991;42.974;12.082;2023-03-14T04:06:21;9.60;;;4.00;;
62037;SDS011;47991;42.974;12.082;2023-03-14T04:08:49;11.20;;;4.10;;
62037;SDS011;47991;42.974;12.082;2023-03-14T04:11:27;14.30;;;4.30;;
62037;SDS011;47991;42.974;12.082;2023-03-14T04:14:02;10.30;;;3.50;;
62037;SDS011;47991;42.974;12.082;2023-03-14T04:16:30;11.90;;;3.70;;
62037;SDS011;47991;42.974;12.082;2023-03-14T04:19:14;12.40;;;3.60;;
62037;SDS011;47991;42.974;12.082;2023-03-14T04:21:45;14.90;;;3.90;;
62037;SDS011;47991;42.974;12.082;2023-03-14T04:24:19;10.00;;;4.00;;
62037;SDS011;47991;42.974;12.082;2023-03-14T04:26:49;10.70;;;3.70;;
62037;SDS011;47991;42.974;12.082;2023-03-14T04:29:15;9.50;;;3.60;;
62037;SDS011;47991;42.974;12.082;2023-03-14T04:31:45;8.90;;;2.90;;
62037;SDS011;47991;42.974;12.082;2023-03-14T04:34:12;7.90;;;2.80;;
62037;SDS011;47991;42.974;12.082;2023-03-14T04:36:44;15.70;;;3.80;;
62037;SDS011;47991;42.974;12.082;2023-03-14T04:39:18;7.80;;;2.80;;
62037;SDS011;47991;42.974;12.082;2023-03-14T04:41:54;9.70;;;2.90;;
62037;SDS011;47991;42.974;12.082;2023-03-14T04:44:21;11.00;;;4.10;;
62037;SDS011;47991;42.974;12.082;2023-03-14T04:46:51;13.00;;;3.10;;
62037;SDS011;47991;42.974;12.082;2023-03-14T04:49:17;10.20;;;3.20;;
62037;SDS011;47991;42.974;12.082;2023-03-14T04:51:44;11.50;;;3.50;;
62037;SDS011;47991;42.974;12.082;2023-03-14T04:54:13;12.00;;;3.50;;
62037;SDS011;47991;42.974;12.082;2023-03-14T04:56:40;7.10;;;2.90;;
62037;SDS011;47991;42.974;12.082;2023-03-14T04:59:07;12.50;;;3.60;;
62037;SDS011;47991;42.974;12.082;2023-03-14T05:01:35;9.90;;;3.40;;
62037;SDS011;47991;42.974;12.082;2023-03-14T05:04:21;8.40;;;3.30;;
62037;SDS011;47991;42.974;12.082;2023-03-14T05:06:47;13.20;;;3.90;;
62037;SDS011;47991;42.974;12.082;2023-03-14T05:09:36;11.20;;;3.90;;
62037;SDS011;47991;42.974;12.082;2023-03-14T05:12:21;11.30;;;3.50;;
62037;SDS011;47991;42.974;12.082;2023-03-14T05:15:01;10.00;;;3.20;;
62037;SDS011;47991;42.974;12.082;2023-03-14T05:17:53;12.80;;;4.00;;
62037;SDS011;47991;42.974;12.082;2023-03-14T05:20:52;13.20;;;3.50;;
62037;SDS011;47991;42.974;12.082;2023-03-14T05:24:06;8.20;;;3.40;;
62037;SDS011;47991;42.974;12.082;2023-03-14T05:27:11;10.60;;;3.60;;
62037;SDS011;47991;42.974;12.082;2023-03-14T05:30:15;8.40;;;2.70;;
62037;SDS011;47991;42.974;12.082;2023-03-14T05:33:24;8.20;;;2.90;;
62037;SDS011;47991;42.974;12.082;2023-03-14T05:36:03;7.60;;;2.90;;
62037;SDS011;47991;42.974;12.082;2023-03-14T05:38:40;10.00;;;2.50;;
62037;SDS011;47991;42.974;12.082;2023-03-14T05:41:26;10.50;;;2.80;;
62037;SDS011;47991;42.974;12.082;2023-03-14T05:44:29;10.60;;;3.10;;
62037;SDS011;47991;42.974;12.082;2023-03-14T05:47:33;8.90;;;2.90;;
62037;SDS011;47991;42.974;12.082;2023-03-14T05:50:47;10.40;;;2.90;;
62037;SDS011;47991;42.974;12.082;2023-03-14T05:53:46;10.70;;;2.90;;
62037;SDS011;47991;42.974;12.082;2023-03-14T05:57:20;11.40;;;3.40;;
62037;SDS011;47991;42.974;12.082;2023-03-14T06:00:10;10.20;;;3.90;;
62037;SDS011;47991;42.974;12.082;2023-03-14T06:02:44;10.50;;;3.10;;
62037;SDS011;47991;42.974;12.082;2023-03-14T06:05:17;9.50;;;3.60;;
62037;SDS011;47991;42.974;12.082;2023-03-14T06:07:44;9.70;;;3.30;;
62037;SDS011;47991;42.974;12.082;2023-03-14T06:10:11;8.90;;;2.90;;
62037;SDS011;47991;42.974;12.082;2023-03-14T06:12:49;10.90;;;3.30;;
62037;SDS011;47991;42.974;12.082;2023-03-14T06:15:16;12.70;;;2.80;;
62037;SDS011;47991;42.974;12.082;2023-03-14T06:17:45;10.40;;;2.70;;
62037;SDS011;47991;42.974;12.082;2023-03-14T06:20:15;7.00;;;2.50;;
62037;SDS011;47991;42.974;12.082;2023-03-14T06:22:43;9.00;;;2.80;;
62037;SDS011;47991;42.974;12.082;2023-03-14T06:25:10;8.00;;;2.40;;
62037;SDS011;47991;42.974;12.082;2023-03-14T06:27:36;9.70;;;3.10;;
62037;SDS011;47991;42.974;12.082;2023-03-14T06:30:05;11.60;;;2.80;;
62037;SDS011;47991;42.974;12.082;2023-03-14T06:32:34;6.30;;;2.40;;
62037;SDS011;47991;42.974;12.082;2023-03-14T06:35:04;8.60;;;2.80;;
62037;SDS011;47991;42.974;12.082;2023-03-14T06:37:34;8.30;;;2.80;;
62037;SDS011;47991;42.974;12.082;2023-03-14T06:40:01;8.10;;;2.60;;
62037;SDS011;47991;42.974;12.082;2023-03-14T06:42:54;7.10;;;2.30;;
62037;SDS011;47991;42.974;12.082;2023-03-14T06:45:21;8.50;;;2.30;;
62037;SDS011;47991;42.974;12.082;2023-03-14T06:47:50;6.20;;;2.20;;
62037;SDS011;47991;42.974;12.082;2023-03-14T06:50:20;11.00;;;2.70;;
62037;SDS011;47991;42.974;12.082;2023-03-14T06:52:48;7.90;;;2.10;;
62037;SDS011;47991;42.974;12.082;2023-03-14T06:55:16;8.00;;;2.60;;
62037;SDS011;47991;42.974;12.082;2023-03-14T06:57:43;6.70;;;2.10;;
62037;SDS011;47991;42.974;12.082;2023-03-14T07:00:11;6.50;;;2.10;;
62037;SDS011;47991;42.974;12.082;2023-03-14T07:02:38;7.30;;;2.50;;
62037;SDS011;47991;42.974;12.082;2023-03-14T07:05:05;6.80;;;2.30;;
62037;SDS011;47991;42.974;12.082;2023-03-14T07:07:42;7.10;;;2.20;;
62037;SDS011;47991;42.974;12.082;2023-03-14T07:10:22;8.70;;;2.20;;
62037;SDS011;47991;42.974;12.082;2023-03-14T07:12:49;6.80;;;2.10;;
62037;SDS011;47991;42.974;12.082;2023-03-14T07:15:16;6.30;;;2.20;;
62037;SDS011;47991;42.974;12.082;2023-03-14T07:17:43;6.40;;;2.30;;
62037;SDS011;47991;42.974;12.082;2023-03-14T07:20:09;7.70;;;2.40;;
62037;SDS011;47991;42.974;12.082;2023-03-14T07:22:37;8.30;;;2.40;;
62037;SDS011;47991;42.974;12.082;2023-03-14T07:25:11;8.90;;;2.30;;
62037;SDS011;47991;42.974;12.082;2023-03-14T07:27:38;7.50;;;2.10;;
62037;SDS011;47991;42.974;12.082;2023-03-14T07:30:05;8.80;;;2.90;;
62037;SDS011;47991;42.974;12.082;2023-03-14T07:32:32;10.90;;;2.70;;
62037;SDS011;47991;42.974;12.082;2023-03-14T07:34:59;7.70;;;2.40;;
62037;SDS011;47991;42.974;12.082;2023-03-14T07:37:26;8.20;;;2.40;;
62037;SDS011;47991;42.974;12.082;2023-03-14T07:39:52;7.70;;;2.50;;
62037;SDS011;47991;42.974;12.082;2023-03-14T07:42:22;6.70;;;2.60;;
62037;SDS011;47991;42.974;12.082;2023-03-14T07:44:57;4.90;;;2.00;;
62037;SDS011;47991;42.974;12.082;2023-03-14T07:47:24;8.00;;;2.40;;
62037;SDS011;47991;42.974;12.082;2023-03-14T07:49:50;6.60;;;2.20;;
62037;SDS011;47991;42.974;12.082;2023-03-14T07:52:16;7.10;;;2.50;;
62037;SDS011;47991;42.974;12.082;2023-03-14T07:54:43;8.90;;;2.40;;
62037;SDS011;47991;42.974;12.082;2023-03-14T07:57:14;9.90;;;2.90;;
62037;SDS011;47991;42.974;12.082;2023-03-14T07:59:45;9.90;;;2.50;;
62037;SDS011;47991;42.974;12.082;2023-03-14T08:02:14;6.00;;;2.20;;
62037;SDS011;47991;42.974;12.082;2023-03-14T08:04:41;5.30;;;2.10;;
62037;SDS011;47991;42.974;12.082;2023-03-14T08:07:08;20.40;;;3.30;;
62037;SDS011;47991;42.974;12.082;2023-03-14T08:09:35;5.60;;;2.20;;
62037;SDS011;47991;42.974;12.082;2023-03-14T08:12:02;5.90;;;2.10;;
62037;SDS011;47991;42.974;12.082;2023-03-14T08:14:28;7.50;;;2.60;;
62037;SDS011;47991;42.974;12.082;2023-03-14T08:16:56;8.10;;;2.40;;
62037;SDS011;47991;42.974;12.082;2023-03-14T08:19:22;6.70;;;2.20;;
62037;SDS011;47991;42.974;12.082;2023-03-14T08:21:49;5.60;;;2.10;;
62037;SDS011;47991;42.974;12.082;2023-03-14T08:24:15;5.20;;;1.90;;
62037;SDS011;47991;42.974;12.082;2023-03-14T08:26:42;5.80;;;2.30;;
62037;SDS011;47991;42.974;12.082;2023-03-14T08:29:08;7.90;;;2.20;;
62037;SDS011;47991;42.974;12.082;2023-03-14T08:31:38;5.20;;;2.20;;
62037;SDS011;47991;42.974;12.082;2023-03-14T08:34:04;10.10;;;2.50;;
62037;SDS011;47991;42.974;12.082;2023-03-14T08:36:32;8.70;;;2.60;;
62037;SDS011;47991;42.974;12.082;2023-03-14T08:39:02;9.40;;;2.70;;
62037;SDS011;47991;42.974;12.082;2023-03-14T08:41:33;8.20;;;2.40;;
62037;SDS011;47991;42.974;12.082;2023-03-14T08:44:06;6.40;;;2.50;;
62037;SDS011;47991;42.974;12.082;2023-03-14T08:46:33;6.50;;;2.40;;
62037;SDS011;47991;42.974;12.082;2023-03-14T08:49:00;9.10;;;2.40;;
62037;SDS011;47991;42.974;12.082;2023-03-14T08:51:33;7.90;;;2.60;;
62037;SDS011;47991;42.974;12.082;2023-03-14T08:54:02;8.10;;;2.90;;
62037;SDS011;47991;42.974;12.082;2023-03-14T08:56:29;6.50;;;2.50;;
62037;SDS011;47991;42.974;12.082;2023-03-14T08:58:59;9.90;;;2.70;;
62037;SDS011;47991;42.974;12.082;2023-03-14T09:01:28;8.50;;;2.70;;
62037;SDS011;47991;42.974;12.082;2023-03-14T09:03:54;9.20;;;2.80;;
62037;SDS011;47991;42.974;12.082;2023-03-14T09:06:20;10.10;;;2.70;;
62037;SDS011;47991;42.974;12.082;2023-03-14T09:08:47;9.90;;;2.50;;
62037;SDS011;47991;42.974;12.082;2023-03-14T09:11:13;8.20;;;2.80;;
62037;SDS011;47991;42.974;12.082;2023-03-14T09:13:40;6.90;;;2.30;;
62037;SDS011;47991;42.974;12.082;2023-03-14T09:16:13;7.30;;;2.20;;
62037;SDS011;47991;42.974;12.082;2023-03-14T09:18:39;10.20;;;2.60;;
62037;SDS011;47991;42.974;12.082;2023-03-14T09:21:05;13.30;;;2.60;;
62037;SDS011;47991;42.974;12.082;2023-03-14T09:23:33;7.90;;;1.90;;
62037;SDS011;47991;42.974;12.082;2023-03-14T09:26:06;8.30;;;2.50;;
62037;SDS011;47991;42.974;12.082;2023-03-14T09:31:22;10.20;;;2.70;;
62037;SDS011;47991;42.974;12.082;2023-03-14T09:33:49;9.40;;;2.60;;
62037;SDS011;47991;42.974;12.082;2023-03-14T09:36:16;9.20;;;2.60;;
62037;SDS011;47991;42.974;12.082;2023-03-14T09:38:52;9.60;;;2.60;;
62037;SDS011;47991;42.974;12.082;2023-03-14T09:41:25;10.40;;;2.60;;
62037;SDS011;47991;42.974;12.082;2023-03-14T09:44:02;11.10;;;3.10;;
62037;SDS011;47991;42.974;12.082;2023-03-14T09:46:35;8.50;;;2.80;;
62037;SDS011;47991;42.974;12.082;2023-03-14T09:49:09;20.10;;;3.50;;
62037;SDS011;47991;42.974;12.082;2023-03-14T09:51:53;10.40;;;3.30;;
62037;SDS011;47991;42.974;12.082;2023-03-14T09:54:31;12.00;;;2.80;;
62037;SDS011;47991;42.974;12.082;2023-03-14T09:57:03;10.60;;;3.00;;
62037;SDS011;47991;42.974;12.082;2023-03-14T09:59:46;14.40;;;3.10;;
62037;SDS011;47991;42.974;12.082;2023-03-14T10:02:19;14.20;;;3.50;;
62037;SDS011;47991;42.974;12.082;2023-03-14T10:04:52;11.90;;;3.10;;
62037;SDS011;47991;42.974;12.082;2023-03-14T10:07:30;9.50;;;3.40;;
62037;SDS011;47991;42.974;12.082;2023-03-14T10:09:58;12.40;;;3.20;;
62037;SDS011;47991;42.974;12.082;2023-03-14T10:12:38;10.30;;;3.00;;
62037;SDS011;47991;42.974;12.082;2023-03-14T10:15:11;10.70;;;3.60;;
62037;SDS011;47991;42.974;12.082;2023-03-14T10:17:46;14.20;;;4.20;;
62037;SDS011;47991;42.974;12.082;2023-03-14T10:23:01;10.80;;;3.50;;
62037;SDS011;47991;42.974;12.082;2023-03-14T10:27:58;14.50;;;3.60;;
62037;SDS011;47991;42.974;12.082;2023-03-14T10:32:55;14.00;;;3.50;;
62037;SDS011;47991;42.974;12.082;2023-03-14T10:35:22;8.60;;;3.20;;
62037;SDS011;47991;42.974;12.082;2023-03-14T10:37:53;13.90;;;3.70;;
62037;SDS011;47991;42.974;12.082;2023-03-14T10:40:24;11.10;;;3.30;;
62037;SDS011;47991;42.974;12.082;2023-03-14T10:43:05;11.50;;;3.80;;
62037;SDS011;47991;42.974;12.082;2023-03-14T10:45:38;12.00;;;4.20;;
62037;SDS011;47991;42.974;12.082;2023-03-14T10:48:23;7.30;;;2.70;;
62037;SDS011;47991;42.974;12.082;2023-03-14T10:53:44;14.90;;;3.90;;
62037;SDS011;47991;42.974;12.082;2023-03-14T10:56:23;10.00;;;3.70;;
62037;SDS011;47991;42.974;12.082;2023-03-14T10:58:58;14.00;;;3.70;;
62037;SDS011;47991;42.974;12.082;2023-03-14T11:07:23;13.10;;;3.70;;
62037;SDS011;47991;42.974;12.082;2023-03-14T11:13:29;12.20;;;3.30;;
62037;SDS011;47991;42.974;12.082;2023-03-14T11:16:08;14.20;;;3.10;;
62037;SDS011;47991;42.974;12.082;2023-03-14T11:18:46;13.70;;;4.40;;
62037;SDS011;47991;42.974;12.082;2023-03-14T11:27:07;14.20;;;3.60;;
62037;SDS011;47991;42.974;12.082;2023-03-14T11:32:14;12.00;;;3.40;;
62037;SDS011;47991;42.974;12.082;2023-03-14T11:35:03;7.80;;;3.20;;
62037;SDS011;47991;42.974;12.082;2023-03-14T11:37:40;8.50;;;3.10;;
62037;SDS011;47991;42.974;12.082;2023-03-14T11:40:34;18.00;;;3.40;;
62037;SDS011;47991;42.974;12.082;2023-03-14T11:46:17;8.70;;;3.00;;
62037;SDS011;47991;42.974;12.082;2023-03-14T11:51:38;12.80;;;3.90;;
62037;SDS011;47991;42.974;12.082;2023-03-14T11:57:05;13.70;;;3.90;;
62037;SDS011;47991;42.974;12.082;2023-03-14T12:10:39;7.50;;;3.20;;
62037;SDS011;47991;42.974;12.082;2023-03-14T12:13:20;8.30;;;3.00;;
62037;SDS011;47991;42.974;12.082;2023-03-14T12:15:54;9.30;;;3.40;;
62037;SDS011;47991;42.974;12.082;2023-03-14T12:18:33;10.50;;;3.50;;
62037;SDS011;47991;42.974;12.082;2023-03-14T12:21:08;10.20;;;3.90;;
62037;SDS011;47991;42.974;12.082;2023-03-14T12:23:44;9.70;;;3.40;;
62037;SDS011;47991;42.974;12.082;2023-03-14T12:26:17;9.90;;;3.70;;
62037;SDS011;47991;42.974;12.082;2023-03-14T12:28:49;7.50;;;3.00;;
62037;SDS011;47991;42.974;12.082;2023-03-14T12:34:03;8.00;;;3.20;;
62037;SDS011;47991;42.974;12.082;2023-03-14T12:42:35;6.80;;;2.60;;
62037;SDS011;47991;42.974;12.082;2023-03-14T12:50:55;5.00;;;2.60;;
62037;SDS011;47991;42.974;12.082;2023-03-14T13:05:04;4.90;;;1.80;;
62037;SDS011;47991;42.974;12.082;2023-03-14T13:12:47;3.90;;;2.00;;
62037;SDS011;47991;42.974;12.082;2023-03-14T13:15:33;5.50;;;2.30;;
62037;SDS011;47991;42.974;12.082;2023-03-14T13:18:02;2.00;;;1.50;;
62037;SDS011;47991;42.974;12.082;2023-03-14T13:23:58;7.20;;;2.20;;
62037;SDS011;47991;42.974;12.082;2023-03-14T13:26:43;4.50;;;2.10;;
62037;SDS011;47991;42.974;12.082;2023-03-14T13:29:14;4.40;;;1.70;;
62037;SDS011;47991;42.974;12.082;2023-03-14T13:31:50;4.80;;;2.30;;
62037;SDS011;47991;42.974;12.082;2023-03-14T13:34:18;4.80;;;2.10;;
62037;SDS011;47991;42.974;12.082;2023-03-14T13:36:45;5.10;;;2.30;;
62037;SDS011;47991;42.974;12.082;2023-03-14T13:39:19;4.30;;;2.00;;
62037;SDS011;47991;42.974;12.082;2023-03-14T13:41:51;5.70;;;2.30;;
62037;SDS011;47991;42.974;12.082;2023-03-14T13:44:26;5.40;;;2.50;;
62037;SDS011;47991;42.974;12.082;2023-03-14T13:46:59;9.60;;;3.20;;
62037;SDS011;47991;42.974;12.082;2023-03-14T13:49:32;6.40;;;3.00;;
62037;SDS011;47991;42.974;12.082;2023-03-14T13:55:14;9.80;;;3.40;;
62037;SDS011;47991;42.974;12.082;2023-03-14T13:57:43;5.50;;;2.40;;
62037;SDS011;47991;42.974;12.082;2023-03-14T14:00:28;7.00;;;3.00;;
62037;SDS011;47991;42.974;12.082;2023-03-14T14:02:56;7.40;;;2.90;;
62037;SDS011;47991;42.974;12.082;2023-03-14T14:05:26;7.40;;;3.00;;
62037;SDS011;47991;42.974;12.082;2023-03-14T14:07:54;8.20;;;3.40;;
62037;SDS011;47991;42.974;12.082;2023-03-14T14:10:32;10.70;;;3.50;;
62037;SDS011;47991;42.974;12.082;2023-03-14T14:13:03;8.60;;;3.00;;
62037;SDS011;47991;42.974;12.082;2023-03-14T14:15:32;9.80;;;3.70;;
62037;SDS011;47991;42.974;12.082;2023-03-14T14:18:10;10.00;;;3.70;;
62037;SDS011;47991;42.974;12.082;2023-03-14T14:20:45;8.20;;;3.70;;
62037;SDS011;47991;42.974;12.082;2023-03-14T14:23:14;8.10;;;3.40;;
62037;SDS011;47991;42.974;12.082;2023-03-14T14:25:55;9.80;;;3.80;;
62037;SDS011;47991;42.974;12.082;2023-03-14T14:40:13;6.80;;;2.70;;
62037;SDS011;47991;42.974;12.082;2023-03-14T14:42:48;5.70;;;2.60;;
62037;SDS011;47991;42.974;12.082;2023-03-14T14:45:21;7.80;;;2.20;;
62037;SDS011;47991;42.974;12.082;2023-03-14T14:48:01;4.10;;;1.70;;
62037;SDS011;47991;42.974;12.082;2023-03-14T14:50:34;4.70;;;1.50;;
62037;SDS011;47991;42.974;12.082;2023-03-14T14:53:21;5.00;;;1.80;;
62037;SDS011;47991;42.974;12.082;2023-03-14T14:55:54;4.20;;;2.10;;
62037;SDS011;47991;42.974;12.082;2023-03-14T14:58:27;5.30;;;1.70;;
62037;SDS011;47991;42.974;12.082;2023-03-14T15:01:08;3.00;;;1.60;;
62037;SDS011;47991;42.974;12.082;2023-03-14T15:03:37;3.40;;;1.60;;
62037;SDS011;47991;42.974;12.082;2023-03-14T15:06:07;2.20;;;1.30;;
62037;SDS011;47991;42.974;12.082;2023-03-14T15:08:40;3.30;;;1.20;;
62037;SDS011;47991;42.974;12.082;2023-03-14T15:11:09;1.90;;;1.20;;
62037;SDS011;47991;42.974;12.082;2023-03-14T15:13:43;2.90;;;1.30;;
62037;SDS011;47991;42.974;12.082;2023-03-14T15:16:12;2.40;;;1.30;;
62037;SDS011;47991;42.974;12.082;2023-03-14T15:18:41;2.60;;;1.20;;
62037;SDS011;47991;42.974;12.082;2023-03-14T15:21:09;2.70;;;1.20;;
62037;SDS011;47991;42.974;12.082;2023-03-14T15:23:36;3.10;;;1.10;;
62037;SDS011;47991;42.974;12.082;2023-03-14T15:26:19;3.40;;;1.20;;
62037;SDS011;47991;42.974;12.082;2023-03-14T15:28:54;3.70;;;1.50;;
62037;SDS011;47991;42.974;12.082;2023-03-14T15:31:21;1.60;;;1.10;;
62037;SDS011;47991;42.974;12.082;2023-03-14T15:33:48;3.60;;;1.50;;
62037;SDS011;47991;42.974;12.082;2023-03-14T15:36:25;3.60;;;1.30;;
62037;SDS011;47991;42.974;12.082;2023-03-14T15:38:54;4.00;;;1.50;;
62037;SDS011;47991;42.974;12.082;2023-03-14T15:41:21;3.70;;;1.30;;
62037;SDS011;47991;42.974;12.082;2023-03-14T15:43:48;3.00;;;1.40;;
62037;SDS011;47991;42.974;12.082;2023-03-14T15:46:15;1.70;;;1.10;;
62037;SDS011;47991;42.974;12.082;2023-03-14T15:48:45;4.00;;;1.40;;
62037;SDS011;47991;42.974;12.082;2023-03-14T15:51:12;4.60;;;1.30;;
62037;SDS011;47991;42.974;12.082;2023-03-14T15:53:38;2.30;;;1.10;;
62037;SDS011;47991;42.974;12.082;2023-03-14T15:56:06;2.20;;;1.20;;
62037;SDS011;47991;42.974;12.082;2023-03-14T15:58:36;3.10;;;1.50;;
62037;SDS011;47991;42.974;12.082;2023-03-14T16:01:06;3.20;;;1.20;;
62037;SDS011;47991;42.974;12.082;2023-03-14T16:03:36;5.00;;;1.20;;
62037;SDS011;47991;42.974;12.082;2023-03-14T16:06:03;3.50;;;1.30;;
62037;SDS011;47991;42.974;12.082;2023-03-14T16:08:30;3.70;;;1.30;;
62037;SDS011;47991;42.974;12.082;2023-03-14T16:10:59;4.90;;;1.50;;
62037;SDS011;47991;42.974;12.082;2023-03-14T16:13:26;3.50;;;1.40;;
62037;SDS011;47991;42.974;12.082;2023-03-14T16:15:57;4.60;;;1.60;;
62037;SDS011;47991;42.974;12.082;2023-03-14T16:18:27;2.90;;;1.30;;
62037;SDS011;47991;42.974;12.082;2023-03-14T16:20:58;2.30;;;1.20;;
62037;SDS011;47991;42.974;12.082;2023-03-14T16:23:25;5.90;;;2.00;;
62037;SDS011;47991;42.974;12.082;2023-03-14T16:25:53;3.90;;;1.60;;
62037;SDS011;47991;42.974;12.082;2023-03-14T16:28:20;4.10;;;1.40;;
62037;SDS011;47991;42.974;12.082;2023-03-14T16:30:47;3.10;;;1.40;;
62037;SDS011;47991;42.974;12.082;2023-03-14T16:33:14;5.40;;;1.50;;
62037;SDS011;47991;42.974;12.082;2023-03-14T16:35:41;4.90;;;1.90;;
62037;SDS011;47991;42.974;12.082;2023-03-14T16:38:17;4.00;;;1.90;;
62037;SDS011;47991;42.974;12.082;2023-03-14T16:40:44;5.80;;;1.90;;
62037;SDS011;47991;42.974;12.082;2023-03-14T16:43:10;4.70;;;2.40;;
62037;SDS011;47991;42.974;12.082;2023-03-14T16:45:36;6.30;;;2.10;;
62037;SDS011;47991;42.974;12.082;2023-03-14T16:48:03;4.90;;;2.00;;
62037;SDS011;47991;42.974;12.082;2023-03-14T16:50:29;6.90;;;2.20;;
62037;SDS011;47991;42.974;12.082;2023-03-14T16:52:55;7.00;;;2.10;;
62037;SDS011;47991;42.974;12.082;2023-03-14T16:55:22;3.70;;;1.90;;
62037;SDS011;47991;42.974;12.082;2023-03-14T16:57:48;5.90;;;1.90;;
62037;SDS011;47991;42.974;12.082;2023-03-14T17:00:14;6.10;;;1.90;;
62037;SDS011;47991;42.974;12.082;2023-03-14T17:02:40;7.80;;;1.70;;
62037;SDS011;47991;42.974;12.082;2023-03-14T17:05:07;6.10;;;2.20;;